James L. Oberstar — WDC6154 — position and weather

sailwx.info

Track history (hours):
 
Tides and Currents Weather Stations Pressure Air Temp Water Temp Dewpoint Dewpoint Depression Visibility Wind Speed Wind Dir Waves Ship Positions

James L. Oberstar

Owner: Destin Trading Corporation, harahan, LA. More information available from US FCC via Universal Licensing System and Coast Guard Vessel Documentation Center.

Last reported at 2017-Feb-24 11:21 UTC. Time now 2017-Feb-24 17:45 UTC.
Position N 29°36' W 094°24'.

Length 26 m.

Type: Towing. MMSI: 367052120.

Date/timePositionNaut miles runAvg speedWind from/ knotsBaromVisibWave heightAir tempDewpointWater temp
2017-Feb-24 11:21N 29°36' W 094°24'4 4.4
2017-Feb-24 10:33N 29°37' W 094°20'5 4.9
2017-Feb-24 09:34N 29°39' W 094°15'6 5.0
2017-Feb-24 08:22N 29°42' W 094°09'4 5.1
2017-Feb-24 07:33N 29°44' W 094°05'5 5.2
2017-Feb-24 06:34N 29°48' W 094°01'4 0.2
2017-Feb-23 11:32N 29°50' W 093°57'  
2017-Feb-20 07:19N 29°33' W 094°54'5 6.3
2017-Feb-20 06:27N 29°37' W 094°59'2 2.8
2017-Feb-20 05:33N 29°37' W 095°01'0 0.2
2017-Feb-20 04:33N 29°37' W 095°01'0 0.1
2017-Feb-20 03:33N 29°37' W 095°01'0 0.1
2017-Feb-20 02:33N 29°37' W 095°01'0 0.0
2017-Feb-20 01:33N 29°37' W 095°01'0 0.0
2017-Feb-20 00:33N 29°37' W 095°01'0 0.1
2017-Feb-19 23:33N 29°37' W 095°01'0 0.1
2017-Feb-19 22:33N 29°37' W 095°01'0 0.0
2017-Feb-19 21:33N 29°37' W 095°01'0 0.0
2017-Feb-19 20:33N 29°37' W 095°01'0 0.0
2017-Feb-19 19:33N 29°37' W 095°01'0 0.1
2017-Feb-19 18:33N 29°37' W 095°01'0 0.1
2017-Feb-19 17:33N 29°37' W 095°01'0 0.0
2017-Feb-19 16:33N 29°37' W 095°01'0 0.0
2017-Feb-19 15:33N 29°37' W 095°01'0 0.0
2017-Feb-19 14:33N 29°37' W 095°01'0 0.1
2017-Feb-19 13:33N 29°37' W 095°01'0 0.0
2017-Feb-19 12:33N 29°37' W 095°01'0 0.1
2017-Feb-19 11:34N 29°37' W 095°01'0 0.1
2017-Feb-19 10:33N 29°37' W 095°01'0 0.0
2017-Feb-19 09:33N 29°37' W 095°01'0 0.0
2017-Feb-19 08:33N 29°37' W 095°01'0 0.0
2017-Feb-19 07:33N 29°37' W 095°01'0 0.0
2017-Feb-19 06:33N 29°37' W 095°01'0 0.0
2017-Feb-19 05:33N 29°37' W 095°01'0 0.0
2017-Feb-19 04:33N 29°37' W 095°01'0 0.0
2017-Feb-19 03:33N 29°37' W 095°01'0 0.1
2017-Feb-19 02:33N 29°37' W 095°01'0 0.0
2017-Feb-19 01:33N 29°37' W 095°01'0 0.0
2017-Feb-19 00:33N 29°37' W 095°01'0 0.0
2017-Feb-18 23:33N 29°37' W 095°01'0 0.1
2017-Feb-18 22:29N 29°37' W 095°01'0 0.0
2017-Feb-18 21:33N 29°37' W 095°01'0 0.0
2017-Feb-18 20:33N 29°37' W 095°01'0 0.0
2017-Feb-18 19:33N 29°37' W 095°01'0 0.0
2017-Feb-18 18:33N 29°37' W 095°01'0 0.0
2017-Feb-18 17:33N 29°37' W 095°01'0 0.0
2017-Feb-18 16:32N 29°37' W 095°01'19 0.8
2017-Feb-17 15:25N 29°25' W 094°44'0 0.0
2017-Feb-17 14:30N 29°25' W 094°44'  
Track history (hours):
 
Tides and Currents Weather Stations Pressure Air Temp Water Temp Dewpoint Dewpoint Depression Visibility Wind Speed Wind Dir Waves Ship Positions

James L. Oberstar

Owner: Destin Trading Corporation, harahan, LA. More information available from US FCC via Universal Licensing System and Coast Guard Vessel Documentation Center.

Last reported at 2017-Feb-24 11:21 UTC. Time now 2017-Feb-24 17:45 UTC.
Position N 29°36' W 094°24'.

Length 26 m.

Type: Towing. MMSI: 367052120.

Date/timePositionNaut miles runAvg speedWind from/ knotsBaromVisibWave heightAir tempDewpointWater temp
2017-Feb-24 11:21N 29°36' W 094°24'4 4.4
2017-Feb-24 10:33N 29°37' W 094°20'5 4.9
2017-Feb-24 09:34N 29°39' W 094°15'6 5.0
2017-Feb-24 08:22N 29°42' W 094°09'4 5.1
2017-Feb-24 07:33N 29°44' W 094°05'5 5.2
2017-Feb-24 06:34N 29°48' W 094°01'4 0.2
2017-Feb-23 11:32N 29°50' W 093°57'  
2017-Feb-20 07:19N 29°33' W 094°54'5 6.3
2017-Feb-20 06:27N 29°37' W 094°59'2 2.8
2017-Feb-20 05:33N 29°37' W 095°01'0 0.2
2017-Feb-20 04:33N 29°37' W 095°01'0 0.1
2017-Feb-20 03:33N 29°37' W 095°01'0 0.1
2017-Feb-20 02:33N 29°37' W 095°01'0 0.0
2017-Feb-20 01:33N 29°37' W 095°01'0 0.0
2017-Feb-20 00:33N 29°37' W 095°01'0 0.1
2017-Feb-19 23:33N 29°37' W 095°01'0 0.1
2017-Feb-19 22:33N 29°37' W 095°01'0 0.0
2017-Feb-19 21:33N 29°37' W 095°01'0 0.0
2017-Feb-19 20:33N 29°37' W 095°01'0 0.0
2017-Feb-19 19:33N 29°37' W 095°01'0 0.1
2017-Feb-19 18:33N 29°37' W 095°01'0 0.1
2017-Feb-19 17:33N 29°37' W 095°01'0 0.0
2017-Feb-19 16:33N 29°37' W 095°01'0 0.0
2017-Feb-19 15:33N 29°37' W 095°01'0 0.0
2017-Feb-19 14:33N 29°37' W 095°01'0 0.1
2017-Feb-19 13:33N 29°37' W 095°01'0 0.0
2017-Feb-19 12:33N 29°37' W 095°01'0 0.1
2017-Feb-19 11:34N 29°37' W 095°01'0 0.1
2017-Feb-19 10:33N 29°37' W 095°01'0 0.0
2017-Feb-19 09:33N 29°37' W 095°01'0 0.0
2017-Feb-19 08:33N 29°37' W 095°01'0 0.0
2017-Feb-19 07:33N 29°37' W 095°01'0 0.0
2017-Feb-19 06:33N 29°37' W 095°01'0 0.0
2017-Feb-19 05:33N 29°37' W 095°01'0 0.0
2017-Feb-19 04:33N 29°37' W 095°01'0 0.0
2017-Feb-19 03:33N 29°37' W 095°01'0 0.1
2017-Feb-19 02:33N 29°37' W 095°01'0 0.0
2017-Feb-19 01:33N 29°37' W 095°01'0 0.0
2017-Feb-19 00:33N 29°37' W 095°01'0 0.0
2017-Feb-18 23:33N 29°37' W 095°01'0 0.1
2017-Feb-18 22:29N 29°37' W 095°01'0 0.0
2017-Feb-18 21:33N 29°37' W 095°01'0 0.0
2017-Feb-18 20:33N 29°37' W 095°01'0 0.0
2017-Feb-18 19:33N 29°37' W 095°01'0 0.0
2017-Feb-18 18:33N 29°37' W 095°01'0 0.0
2017-Feb-18 17:33N 29°37' W 095°01'0 0.0
2017-Feb-18 16:32N 29°37' W 095°01'19 0.8
2017-Feb-17 15:25N 29°25' W 094°44'0 0.0
2017-Feb-17 14:30N 29°25' W 094°44'  

Dump ship's entire track history